createdAt,value
2018-06-11T00:01:46.867Z,81.80
2018-06-11T00:04:16.189Z,81.70
2018-06-11T00:06:45.524Z,81.60
2018-06-11T00:09:14.895Z,82.00
2018-06-11T00:11:44.338Z,82.00
2018-06-11T00:14:13.679Z,81.90
2018-06-11T00:16:43.133Z,81.90
2018-06-11T00:19:12.505Z,82.10
2018-06-11T00:21:42.241Z,82.10
2018-06-11T00:24:11.673Z,82.40
2018-06-11T00:26:41.013Z,82.00
2018-06-11T00:29:10.354Z,81.60
2018-06-11T00:31:39.742Z,81.90
2018-06-11T00:34:09.112Z,81.60
2018-06-11T00:36:38.422Z,82.00
2018-06-11T00:41:38.383Z,81.20
2018-06-11T00:44:07.741Z,81.30
2018-06-11T00:46:37.062Z,80.90
2018-06-11T00:49:06.430Z,80.70
2018-06-11T00:51:35.803Z,80.40
2018-06-11T00:54:05.138Z,80.50
2018-06-11T00:56:34.508Z,80.20
2018-06-11T00:59:03.872Z,80.60
2018-06-11T01:01:33.242Z,80.60
2018-06-11T01:04:02.591Z,80.60
2018-06-11T01:06:31.917Z,80.80
2018-06-11T01:09:01.301Z,80.80
2018-06-11T01:11:30.658Z,81.00
2018-06-11T01:14:00.017Z,80.60
2018-06-11T01:16:29.343Z,80.70
2018-06-11T01:18:58.691Z,80.50
2018-06-11T01:21:28.025Z,80.60
2018-06-11T01:23:57.356Z,80.50
2018-06-11T01:26:26.735Z,80.40
2018-06-11T01:29:59.095Z,80.30
2018-06-11T01:32:28.524Z,80.30
2018-06-11T01:34:57.849Z,80.40
2018-06-11T01:37:27.286Z,80.40
2018-06-11T01:39:56.696Z,80.50
2018-06-11T01:42:26.098Z,80.90
2018-06-11T01:44:55.516Z,80.80
2018-06-11T01:47:25.052Z,81.00
2018-06-11T01:49:54.518Z,81.20
2018-06-11T01:52:24.053Z,81.00
2018-06-11T01:54:53.496Z,81.20
2018-06-11T01:57:22.997Z,81.20
2018-06-11T01:59:52.485Z,81.40
2018-06-11T02:02:21.924Z,81.50
2018-06-11T02:04:51.369Z,82.00
2018-06-11T02:07:20.784Z,81.40
2018-06-11T02:09:50.190Z,81.40
2018-06-11T02:12:19.614Z,81.40
2018-06-11T02:14:49.010Z,81.40
2018-06-11T02:17:18.390Z,81.40
2018-06-11T02:19:47.757Z,81.40
2018-06-11T02:22:17.142Z,81.50
2018-06-11T02:24:46.556Z,81.50
2018-06-11T02:27:15.918Z,81.60
2018-06-11T02:29:45.296Z,81.60
2018-06-11T02:32:14.636Z,81.20
2018-06-11T02:34:43.926Z,81.30
2018-06-11T02:37:13.311Z,81.50
2018-06-11T02:39:42.666Z,81.30
2018-06-11T02:42:12.021Z,81.40
2018-06-11T02:44:41.404Z,81.60
2018-06-11T02:47:10.806Z,81.70
2018-06-11T02:49:40.205Z,81.60
2018-06-11T02:52:09.598Z,81.80
2018-06-11T02:54:38.959Z,81.90
2018-06-11T02:57:08.323Z,82.00
2018-06-11T02:59:37.640Z,82.10
2018-06-11T03:02:06.991Z,82.10
2018-06-11T03:04:36.374Z,82.10
2018-06-11T03:07:05.707Z,82.30
2018-06-11T03:09:34.073Z,82.40
2018-06-11T03:12:03.530Z,82.50
2018-06-11T03:14:32.842Z,82.50
2018-06-11T03:17:02.203Z,82.40
2018-06-11T03:19:31.538Z,82.30
2018-06-11T03:22:01.154Z,82.10
2018-06-11T03:24:30.456Z,82.10
2018-06-11T03:26:59.850Z,82.10
2018-06-11T03:29:29.208Z,82.80
2018-06-11T03:31:58.545Z,82.50
2018-06-11T03:34:27.874Z,82.70
2018-06-11T03:36:57.384Z,82.80
2018-06-11T03:39:26.751Z,82.50
2018-06-11T03:41:56.184Z,82.40
2018-06-11T03:44:25.575Z,82.20
2018-06-11T03:46:55.008Z,82.20
2018-06-11T03:49:24.424Z,82.10
2018-06-11T03:51:53.958Z,82.20
2018-06-11T03:54:23.428Z,82.00
2018-06-11T03:56:52.877Z,81.60
2018-06-11T03:59:22.282Z,81.60
2018-06-11T04:01:51.661Z,81.80
2018-06-11T04:04:21.024Z,82.60
2018-06-11T04:06:50.444Z,81.60
2018-06-11T04:09:19.827Z,81.80
2018-06-11T04:14:18.351Z,82.10
2018-06-11T04:19:16.883Z,81.70
2018-06-11T04:21:46.342Z,81.20
2018-06-11T04:24:15.822Z,81.10
2018-06-11T04:26:45.256Z,80.90
2018-06-11T04:29:14.598Z,80.70
2018-06-11T04:31:44.022Z,80.70
2018-06-11T04:34:13.458Z,80.20
2018-06-11T04:36:42.856Z,79.70
2018-06-11T04:39:12.270Z,79.60
2018-06-11T04:41:41.745Z,78.40
2018-06-11T04:44:11.450Z,79.00
2018-06-11T04:46:40.927Z,79.20
2018-06-11T04:49:10.301Z,79.30
2018-06-11T04:51:39.686Z,78.90
2018-06-11T04:54:09.102Z,79.00
2018-06-11T04:56:38.629Z,79.00
2018-06-11T04:59:08.029Z,79.00
2018-06-11T05:01:37.477Z,79.20
2018-06-11T05:04:07.312Z,79.00
2018-06-11T05:06:36.654Z,78.80
2018-06-11T05:09:07.964Z,78.30
2018-06-11T05:11:37.343Z,78.80
2018-06-11T05:14:06.748Z,78.00
2018-06-11T05:16:36.129Z,78.50
2018-06-11T05:19:05.595Z,79.10
2018-06-11T05:21:35.469Z,78.20
2018-06-11T05:24:04.963Z,77.90
2018-06-11T05:26:34.473Z,77.90
2018-06-11T05:29:03.877Z,77.80
2018-06-11T05:31:33.558Z,77.70
2018-06-11T05:34:02.933Z,77.40
2018-06-11T05:36:32.292Z,77.20
2018-06-11T05:39:01.651Z,77.40
2018-06-11T05:41:31.198Z,77.20
2018-06-11T05:44:00.598Z,77.50
2018-06-11T05:46:29.938Z,77.20
2018-06-11T05:48:59.394Z,76.80
2018-06-11T05:51:35.316Z,77.10
2018-06-11T05:54:04.989Z,76.90
2018-06-11T05:56:34.461Z,76.40
2018-06-11T05:59:03.960Z,76.70
2018-06-11T06:01:33.370Z,76.90
2018-06-11T06:04:02.748Z,77.40
2018-06-11T06:06:32.170Z,77.90
2018-06-11T06:09:01.519Z,78.40
2018-06-11T06:11:30.887Z,78.60
2018-06-11T06:14:00.250Z,77.80
2018-06-11T06:16:29.687Z,77.60
2018-06-11T06:18:59.039Z,77.40
2018-06-11T06:21:28.690Z,77.20
2018-06-11T06:23:58.058Z,76.30
2018-06-11T06:26:27.494Z,76.70
2018-06-11T06:29:01.676Z,76.30
2018-06-11T06:31:31.624Z,75.60
2018-06-11T06:34:01.116Z,75.20
2018-06-11T06:36:30.481Z,74.90
2018-06-11T06:39:00.507Z,75.10
2018-06-11T06:41:29.895Z,75.60
2018-06-11T06:46:28.491Z,74.70
2018-06-11T06:48:57.882Z,73.30
2018-06-11T06:51:27.406Z,73.30
2018-06-11T06:53:56.871Z,73.70
2018-06-11T06:56:26.276Z,73.20
2018-06-11T06:58:55.740Z,72.90
2018-06-11T07:01:25.120Z,73.30
2018-06-11T07:03:54.658Z,73.60
2018-06-11T07:06:24.111Z,73.60
2018-06-11T07:08:53.590Z,75.30
2018-06-11T07:11:23.104Z,76.20
2018-06-11T07:13:52.591Z,76.80
2018-06-11T07:16:22.014Z,77.20
2018-06-11T07:18:51.452Z,76.80
2018-06-11T07:21:21.234Z,76.00
2018-06-11T07:23:50.696Z,75.00
2018-06-11T07:26:20.202Z,73.90
2018-06-11T07:28:49.579Z,74.40
2018-06-11T07:31:19.152Z,76.10
2018-06-11T07:33:48.608Z,77.00
2018-06-11T07:36:17.998Z,74.50
2018-06-11T07:38:47.395Z,75.60
2018-06-11T07:41:16.790Z,75.60
2018-06-11T07:43:46.180Z,73.60
2018-06-11T07:46:15.580Z,72.80
2018-06-11T07:48:45.001Z,75.10
2018-06-11T07:51:14.510Z,75.20
2018-06-11T07:53:43.894Z,75.20
2018-06-11T07:56:13.287Z,72.50
2018-06-11T07:58:42.733Z,72.20
2018-06-11T08:01:12.116Z,72.60
2018-06-11T08:03:41.491Z,70.40
2018-06-11T08:06:10.946Z,70.90
2018-06-11T08:08:40.343Z,71.30
2018-06-11T08:11:09.738Z,70.70
2018-06-11T08:13:39.218Z,70.40
2018-06-11T08:16:08.499Z,69.20
2018-06-11T08:18:38.225Z,65.60
2018-06-11T08:21:07.591Z,65.40
2018-06-11T08:23:36.949Z,66.20
2018-06-11T08:26:06.336Z,67.70
2018-06-11T08:28:35.719Z,67.20
2018-06-11T08:31:05.076Z,62.90
2018-06-11T08:33:34.581Z,63.90
2018-06-11T08:36:03.909Z,60.60
2018-06-11T08:38:33.336Z,61.60
2018-06-11T08:41:02.801Z,63.80
2018-06-11T08:43:32.114Z,64.70
2018-06-11T08:46:01.461Z,66.60
2018-06-11T08:48:30.809Z,63.50
2018-06-11T08:51:00.110Z,62.70
2018-06-11T08:53:29.473Z,64.10
2018-06-11T08:55:58.854Z,65.00
2018-06-11T08:58:28.213Z,64.60
2018-06-11T09:00:57.558Z,67.40
2018-06-11T09:03:27.030Z,63.70
2018-06-11T09:05:56.470Z,65.20
2018-06-11T09:08:25.875Z,65.20
2018-06-11T09:10:55.237Z,63.30
2018-06-11T09:13:24.616Z,60.70
2018-06-11T09:15:54.253Z,63.70
2018-06-11T09:18:24.026Z,62.80
2018-06-11T09:20:53.374Z,62.60
2018-06-11T09:23:22.801Z,64.00
2018-06-11T09:25:52.653Z,61.50
2018-06-11T09:28:22.126Z,58.00
2018-06-11T09:30:51.482Z,60.00
2018-06-11T09:33:20.948Z,61.00
2018-06-11T09:35:50.285Z,62.40
2018-06-11T09:38:19.639Z,62.60
2018-06-11T09:40:49.044Z,63.70
2018-06-11T09:43:18.544Z,60.30
2018-06-11T09:45:47.909Z,58.90
2018-06-11T09:48:17.283Z,59.40
2018-06-11T09:50:46.696Z,62.40
2018-06-11T09:53:16.101Z,59.50
2018-06-11T09:55:45.521Z,61.20
2018-06-11T09:58:15.001Z,58.60
2018-06-11T10:00:44.407Z,60.00
2018-06-11T10:03:13.770Z,61.00
2018-06-11T10:05:43.146Z,59.90
2018-06-11T10:08:12.721Z,57.30
2018-06-11T10:10:42.115Z,59.80
2018-06-11T10:13:11.504Z,56.60
2018-06-11T10:15:40.992Z,57.30
2018-06-11T10:18:10.800Z,57.50
2018-06-11T10:20:40.193Z,58.00
2018-06-11T10:23:09.621Z,55.20
2018-06-11T10:25:38.977Z,56.70
2018-06-11T10:28:08.357Z,54.80
2018-06-11T10:30:37.823Z,57.60
2018-06-11T10:33:07.233Z,58.20
2018-06-11T10:35:36.571Z,58.20
2018-06-11T10:38:05.979Z,57.20
2018-06-11T10:40:35.338Z,57.80
2018-06-11T10:43:04.686Z,57.40
2018-06-11T10:45:34.123Z,56.10
2018-06-11T10:48:03.523Z,56.50
2018-06-11T10:50:32.954Z,55.20
2018-06-11T10:53:02.311Z,54.50
2018-06-11T10:55:31.801Z,55.90
2018-06-11T10:58:01.697Z,55.70
2018-06-11T11:00:31.170Z,53.00
2018-06-11T11:03:00.582Z,54.10
2018-06-11T11:05:30.001Z,51.90
2018-06-11T11:07:59.460Z,55.80
2018-06-11T11:10:29.218Z,53.40
2018-06-11T11:12:58.754Z,51.90
2018-06-11T11:15:28.216Z,51.40
2018-06-11T11:17:57.659Z,53.10
2018-06-11T11:20:27.250Z,53.50
2018-06-11T11:22:56.844Z,54.10
2018-06-11T11:25:26.450Z,52.60
2018-06-11T11:27:56.047Z,56.10
2018-06-11T11:30:25.658Z,56.10
2018-06-11T11:32:55.397Z,54.50
2018-06-11T11:35:25.162Z,55.30
2018-06-11T11:37:55.119Z,54.40
2018-06-11T11:40:24.957Z,53.20
2018-06-11T11:42:54.597Z,55.00
2018-06-11T11:45:24.301Z,55.50
2018-06-11T11:47:53.911Z,54.50
2018-06-11T11:50:23.651Z,54.40
2018-06-11T11:52:53.131Z,53.20
2018-06-11T11:55:22.651Z,53.10
2018-06-11T11:57:52.035Z,52.30
2018-06-11T12:00:21.863Z,53.80
2018-06-11T12:02:52.271Z,52.50
2018-06-11T12:05:21.700Z,51.60
2018-06-11T12:07:51.277Z,51.50
2018-06-11T12:10:20.691Z,51.60
2018-06-11T12:12:50.095Z,50.00
2018-06-11T12:15:19.719Z,51.60
2018-06-11T12:17:49.176Z,51.70
2018-06-11T12:20:18.522Z,49.30
2018-06-11T12:22:47.845Z,51.40
2018-06-11T12:25:17.334Z,50.80
2018-06-11T12:27:46.782Z,50.00
2018-06-11T12:30:16.403Z,50.10
2018-06-11T12:32:46.361Z,51.20
2018-06-11T12:35:15.746Z,50.10
2018-06-11T12:37:45.180Z,50.40
2018-06-11T12:40:14.678Z,50.20
2018-06-11T12:42:43.989Z,48.80
2018-06-11T12:45:14.263Z,51.10
2018-06-11T12:47:43.662Z,52.60
2018-06-11T12:50:12.986Z,49.10
2018-06-11T12:52:42.426Z,50.70
2018-06-11T12:55:11.763Z,50.40
2018-06-11T12:57:41.108Z,52.10
2018-06-11T13:00:10.493Z,53.70
2018-06-11T13:02:39.816Z,53.20
2018-06-11T13:05:09.177Z,51.40
2018-06-11T13:07:38.733Z,49.50
2018-06-11T13:10:08.458Z,49.20
2018-06-11T13:12:38.303Z,49.00
2018-06-11T13:15:07.700Z,50.70
2018-06-11T13:17:37.086Z,51.30
2018-06-11T13:20:06.462Z,50.80
2018-06-11T13:22:35.928Z,50.20
2018-06-11T13:25:05.416Z,50.90
2018-06-11T13:27:34.814Z,51.80
2018-06-11T13:30:04.615Z,51.20
2018-06-11T13:32:34.000Z,51.00
2018-06-11T13:35:03.366Z,51.00
2018-06-11T13:37:32.801Z,51.60
2018-06-11T13:40:02.180Z,52.00
2018-06-11T13:42:31.554Z,51.10
2018-06-11T13:45:00.949Z,52.20
2018-06-11T13:47:30.344Z,54.00
2018-06-11T13:49:59.733Z,54.90
2018-06-11T13:52:29.128Z,53.80
2018-06-11T13:54:58.602Z,54.60
2018-06-11T13:57:28.125Z,55.10
2018-06-11T13:59:57.533Z,55.10
2018-06-11T14:02:26.971Z,56.50
2018-06-11T14:04:56.385Z,57.10
2018-06-11T14:07:25.848Z,55.70
2018-06-11T14:09:55.298Z,55.60
2018-06-11T14:12:24.860Z,55.20
2018-06-11T14:14:54.393Z,56.20
2018-06-11T14:17:24.100Z,57.20
2018-06-11T14:19:53.551Z,59.00
2018-06-11T14:22:23.124Z,58.00
2018-06-11T14:24:52.869Z,59.50
2018-06-11T14:27:22.436Z,59.30
2018-06-11T14:29:52.121Z,58.80
2018-06-11T14:32:21.790Z,59.30
2018-06-11T14:34:51.233Z,60.60
2018-06-11T14:37:20.756Z,57.80
2018-06-11T14:39:50.214Z,59.20
2018-06-11T14:42:19.659Z,58.90
2018-06-11T14:44:49.091Z,60.00
2018-06-11T14:47:18.577Z,59.70
2018-06-11T14:49:47.968Z,58.10
2018-06-11T14:54:54.721Z,57.80
2018-06-11T14:57:23.891Z,55.50
2018-06-11T14:59:53.029Z,55.90
2018-06-11T15:02:22.194Z,54.60
2018-06-11T15:04:51.661Z,55.40
2018-06-11T15:07:20.795Z,55.50
2018-06-11T15:09:49.928Z,55.40
2018-06-11T15:12:19.072Z,55.20
2018-06-11T15:14:48.201Z,56.00
2018-06-11T15:17:17.326Z,55.40
2018-06-11T15:19:46.477Z,55.70
2018-06-11T15:22:15.611Z,56.20
2018-06-11T15:24:44.762Z,57.10
2018-06-11T15:27:14.238Z,57.00
2018-06-11T15:32:12.281Z,57.40
2018-06-11T15:34:41.419Z,58.40
2018-06-11T15:37:10.549Z,59.20
2018-06-11T15:39:39.714Z,59.30
2018-06-11T15:42:08.835Z,59.30
2018-06-11T15:44:37.960Z,59.30
2018-06-11T15:47:07.090Z,59.50
2018-06-11T15:49:36.225Z,60.80
2018-06-11T15:52:05.366Z,60.80
2018-06-11T15:54:34.693Z,61.70
2018-06-11T15:57:03.834Z,61.50
2018-06-11T15:59:32.958Z,62.60
2018-06-11T16:02:02.106Z,62.80
2018-06-11T16:04:31.262Z,63.80
2018-06-11T16:07:00.397Z,63.10
2018-06-11T16:09:29.537Z,62.30
2018-06-11T16:11:58.699Z,62.20
2018-06-11T16:14:27.793Z,62.30
2018-06-11T16:16:56.927Z,62.00
2018-06-11T16:19:26.057Z,62.40
2018-06-11T16:24:24.139Z,61.80
2018-06-11T16:26:53.273Z,61.30
2018-06-11T16:29:22.410Z,61.70
2018-06-11T16:31:51.581Z,61.00
2018-06-11T16:34:20.986Z,62.40
2018-06-11T16:36:50.109Z,61.30
2018-06-11T16:39:19.268Z,60.90
2018-06-11T16:41:48.461Z,61.20
2018-06-11T16:44:17.712Z,61.40
2018-06-11T16:46:46.891Z,62.40
2018-06-11T16:49:16.088Z,62.50
2018-06-11T16:51:45.246Z,60.50
2018-06-11T16:54:14.433Z,59.60
2018-06-11T16:56:43.613Z,58.70
2018-06-11T16:59:12.820Z,58.20
2018-06-11T17:01:42.317Z,58.00
2018-06-11T17:04:11.509Z,57.90
2018-06-11T17:06:40.690Z,57.70
2018-06-11T17:09:09.913Z,57.20
2018-06-11T17:11:39.413Z,56.70
2018-06-11T17:14:08.582Z,57.40
2018-06-11T17:16:37.767Z,56.80
2018-06-11T17:19:07.109Z,56.90
2018-06-11T17:21:36.289Z,57.00
2018-06-11T17:24:05.479Z,57.10
2018-06-11T17:26:34.673Z,57.80
2018-06-11T17:29:03.912Z,57.90
2018-06-11T17:31:33.070Z,58.00
2018-06-11T17:34:02.249Z,59.00
2018-06-11T17:36:31.602Z,57.20
2018-06-11T17:39:00.785Z,56.70
2018-06-11T17:41:29.959Z,57.70
2018-06-11T17:43:59.731Z,57.50
2018-06-11T17:46:28.926Z,59.80
2018-06-11T17:48:58.117Z,60.90
2018-06-11T17:51:27.322Z,63.10
2018-06-11T17:53:56.500Z,64.20
2018-06-11T17:58:54.715Z,64.80
2018-06-11T18:01:23.897Z,65.10
2018-06-11T18:03:53.069Z,65.70
2018-06-11T18:06:22.269Z,66.10
2018-06-11T18:08:51.433Z,66.80
2018-06-11T18:11:20.609Z,67.50
2018-06-11T18:13:49.801Z,67.90
2018-06-11T18:16:18.994Z,68.50
2018-06-11T18:18:48.192Z,69.10
2018-06-11T18:21:17.361Z,69.80
2018-06-11T18:23:46.532Z,70.00
2018-06-11T18:26:15.753Z,70.20
2018-06-11T18:28:44.922Z,70.90
2018-06-11T18:31:14.160Z,69.70
2018-06-11T18:33:43.346Z,70.20
2018-06-11T18:36:12.533Z,70.60
2018-06-11T18:38:41.774Z,70.00
2018-06-11T18:41:10.998Z,69.20
2018-06-11T18:43:40.198Z,68.20
2018-06-11T18:46:09.345Z,68.30
2018-06-11T18:48:38.496Z,68.10
2018-06-11T18:51:07.644Z,69.00
2018-06-11T18:53:36.822Z,68.00
2018-06-11T18:56:06.259Z,68.50
2018-06-11T18:58:35.398Z,68.10
2018-06-11T19:01:04.613Z,66.80
2018-06-11T19:03:33.750Z,66.00
2018-06-11T19:06:02.883Z,66.00
2018-06-11T19:08:32.070Z,66.00
2018-06-11T19:11:01.342Z,65.60
2018-06-11T19:13:30.713Z,65.70
2018-06-11T19:16:00.721Z,66.00
2018-06-11T19:20:58.774Z,67.10
2018-06-11T19:23:28.037Z,67.40
2018-06-11T19:25:57.177Z,67.90
2018-06-11T19:28:26.622Z,68.10
2018-06-11T19:30:55.805Z,68.40
2018-06-11T19:33:25.050Z,69.20
2018-06-11T19:35:54.233Z,69.30
2018-06-11T19:38:23.424Z,70.20
2018-06-11T19:40:52.727Z,70.60
2018-06-11T19:43:21.916Z,71.30
2018-06-11T19:45:51.066Z,72.30
2018-06-11T19:48:20.245Z,72.20
2018-06-11T19:50:49.486Z,72.70
2018-06-11T19:53:18.607Z,73.10
2018-06-11T19:55:47.793Z,73.20
2018-06-11T19:58:17.207Z,73.50
2018-06-11T20:00:46.346Z,73.60
2018-06-11T20:03:15.461Z,73.80
2018-06-11T20:05:44.607Z,74.20
2018-06-11T20:08:13.734Z,74.50
2018-06-11T20:10:42.937Z,74.80
2018-06-11T20:13:12.166Z,74.70
2018-06-11T20:15:41.289Z,75.00
2018-06-11T20:18:10.426Z,75.10
2018-06-11T20:20:39.618Z,75.10
2018-06-11T20:23:08.813Z,75.40
2018-06-11T20:25:37.980Z,75.40
2018-06-11T20:28:07.172Z,75.70
2018-06-11T20:30:36.345Z,75.80
2018-06-11T20:33:05.757Z,76.00
2018-06-11T20:35:34.931Z,76.40
2018-06-11T20:38:04.109Z,76.40
2018-06-11T20:40:33.325Z,76.60
2018-06-11T20:43:02.593Z,77.00
2018-06-11T20:45:31.741Z,77.30
2018-06-11T20:48:00.965Z,78.20
2018-06-11T20:50:30.181Z,77.80
2018-06-11T20:52:59.297Z,77.90
2018-06-11T20:55:28.449Z,78.20
2018-06-11T20:57:57.630Z,78.30
2018-06-11T21:00:26.732Z,78.50
2018-06-11T21:02:55.876Z,78.70
2018-06-11T21:05:25.381Z,79.10
2018-06-11T21:07:54.515Z,79.30
2018-06-11T21:10:23.689Z,79.60
2018-06-11T21:12:52.982Z,79.80
2018-06-11T21:15:22.191Z,80.00
2018-06-11T21:17:51.343Z,80.00
2018-06-11T21:20:20.513Z,80.10
2018-06-11T21:25:18.735Z,80.10
2018-06-11T21:27:47.938Z,80.10
2018-06-11T21:30:17.125Z,79.90
2018-06-11T21:32:46.314Z,80.20
2018-06-11T21:35:15.500Z,80.30
2018-06-11T21:37:44.718Z,80.40
2018-06-11T21:40:13.885Z,80.60
2018-06-11T21:42:43.081Z,80.80
2018-06-11T21:45:12.277Z,81.00
2018-06-11T21:47:41.441Z,81.10
2018-06-11T21:50:10.625Z,80.90
2018-06-11T21:52:39.810Z,81.30
2018-06-11T21:55:08.994Z,81.60
2018-06-11T21:57:38.162Z,81.60
2018-06-11T22:00:08.185Z,81.60
2018-06-11T22:02:37.374Z,81.70
2018-06-11T22:05:06.573Z,81.80
2018-06-11T22:10:04.686Z,82.80
2018-06-11T22:12:33.882Z,83.00
2018-06-11T22:15:03.058Z,83.00
2018-06-11T22:17:32.249Z,83.00
2018-06-11T22:20:01.419Z,83.10
2018-06-11T22:22:30.582Z,82.90
2018-06-11T22:24:59.769Z,82.90
2018-06-11T22:27:28.952Z,82.80
2018-06-11T22:29:58.264Z,82.50
2018-06-11T22:32:27.406Z,83.30
2018-06-11T22:34:56.525Z,82.40
2018-06-11T22:37:25.657Z,82.10
2018-06-11T22:39:54.837Z,81.80
2018-06-11T22:42:23.985Z,82.00
2018-06-11T22:44:53.115Z,82.00
2018-06-11T22:47:22.245Z,82.00
2018-06-11T22:49:51.368Z,81.70
2018-06-11T22:52:20.501Z,81.70
2018-06-11T22:54:49.646Z,81.30
2018-06-11T22:57:18.777Z,80.90
2018-06-11T22:59:47.907Z,80.70
2018-06-11T23:02:17.027Z,81.20
2018-06-11T23:04:46.169Z,81.60
2018-06-11T23:07:15.298Z,81.20
2018-06-11T23:09:44.453Z,81.30
2018-06-11T23:12:13.573Z,81.40
2018-06-11T23:14:42.755Z,81.20
2018-06-11T23:17:11.938Z,80.70
2018-06-11T23:19:41.097Z,80.80
2018-06-11T23:22:10.282Z,81.00
2018-06-11T23:24:39.457Z,80.70
2018-06-11T23:27:08.633Z,80.50
2018-06-11T23:29:37.797Z,80.40
2018-06-11T23:32:06.973Z,80.30
2018-06-11T23:34:36.149Z,80.30
2018-06-11T23:37:05.394Z,80.70
2018-06-11T23:39:34.565Z,80.60
2018-06-11T23:42:03.783Z,80.70
2018-06-11T23:44:32.949Z,80.70
2018-06-11T23:47:02.118Z,80.90
2018-06-11T23:49:31.914Z,80.80
2018-06-11T23:52:01.071Z,80.90
2018-06-11T23:54:30.254Z,80.80
2018-06-11T23:56:59.441Z,80.60
2018-06-11T23:59:28.829Z,80.50
